Connoquenessing, PA

10:52 AM EDT on October 24, 2014 (GMT -0400)
Pittsburgh International | Change Station
CLOSE
Current Station
Airport
Location: Pittsburgh,
Elevation: 1201 ft
Nearby Weather Stations

Elev 1201 ft 40.48 °N, 80.21 °W | Updated 1 hour ago

Partly Cloudy
Partly Cloudy
42 °F
Feels Like 42 °F
N
0
Wind Variable Wind from North

Today
High -- | Low -- °F
--% Chance of Precip.
Yesterday
High -- | Low -- °F
Precip. -- in
7:41 AM 6:26 PM
New Moon, 1% visible
Pressure 30.14 in
Visibility 10.0 miles
Clouds Few 13000 ft
Overcast 22000 ft
Dew Point 39 °F
Humidity 89%
Rainfall 0.00 in
Snow Depth Not available.
UV 1 out of 12
Pollen .70 out of 12
Ozone Good
PM2.5 Moderate
Flu Activity Sporadic
METAR KPIT 241351Z 00000KT 10SM FEW130 OVC220 06/04 A3010 RMK AO2 SLP206 T00560039

More Conditions Fewer Conditions

Pressure 30.14 in
Visibility 10.0 miles
Clouds Few 13000 ft
Overcast 22000 ft
Dew Point 39 °F
Humidity 89%
Rainfall 0.00 in
Snow Depth Not available.
UV 1 out of 12
Pollen .70 out of 12
Ozone Good
PM2.5 Moderate
Flu Activity Sporadic
METAR KPIT 241351Z 00000KT 10SM FEW130 OVC220 06/04 A3010 RMK AO2 SLP206 T00560039

More Conditions Fewer Conditions

10-Day Weather Forecast

Almanac

Astronomy

Oct. 24, 2014 Rise Set
Actual Time 7:41 AM EDT 6:26 PM EDT
Civil Twilight 7:13 AM EDT 6:54 PM EDT
Nautical Twilight 6:41 AM EDT 7:26 PM EDT
Astronomical Twilight 6:09 AM EDT 7:58 PM EDT
Moon 8:18 AM EDT 7:05 PM EDT
Length of Visible Light 11h 41m
Length of Day
10h 45m
Tomorrow will be 2m 31s shorter.
New Moon, 1% of the Moon is Illuminated
Today
New Moon
Oct 30
First Quarter
Nov 6
Full
Nov 14
Last Quarter
Nov 22
New

Today's Extremes

State Highs State Lows

Community

WunderPhotos

Upload Photos

1,764,581 photos uploaded!

Nearby

Air Quality

  Air Quality AQ Index Pollutant
Yesterday Good
PM2.5
Yesterday Good
OZONE
Current Moderate
PM2.5
Current Good
OZONE
Friday Moderate
PM2.5
Saturday Moderate
PM2.5

Snow Depth

Station Depth Elevation
No new snow has been reported.

Earthquake Activity

City Distance Mag. Time & Date
No recent earthquake activity has been reported nearby.
Minimum magnitude displayed is 2.5.

Coastal Water Temperatures

Place Temperature
No Stations Reporting

Nearby Weather Stations